OITM

Details ICAO OITM (ACP)
Name SAHAND
Region Iran
Timezone Asia/Tehran (UTC+4.5)
Plans Departing 0
Arriving 1
Stats Elevation 4,396 ft / 1,340 m (AMSL)
Location 37.348015° 46.127904°
Runways 1
Magnetic Variation 5.461° E
Sunrise 2018-05-20 01:44:30 UTC / 2018-05-20 06:14:30 Local
Sunset 2018-05-20 16:02:21 UTC / 2018-05-20 20:32:21 Local
Advertisement - Login to hide

Runways

ID Width Length Bearing (true) Bearing (mag) Surface Threshold Offset Overrun Length
08 98 ft / 30 m 9,594 ft / 2,924 m 84.99° 79.53° Asphalt 1,148 ft / 350 m 0 ft / 0 m
26 98 ft / 30 m 9,594 ft / 2,924 m 265.01° 259.55° Asphalt 1,509 ft / 460 m 0 ft / 0 m

Map

Weather


0- 5 10 15 20 25 30 35+ Temperature / ° C

Clouds and Precipitation
Forecast for 2018-05-20 18:00 UTC. Updated an hour ago

Ground ~20,000 ft ~40,000 ft Winds

METAR

OITM 201800Z 15004KT 9999 FEW040 17/10 Q1019

TAF

Not found

Frequencies

Tower 127.45 MHz INFO
Warning: Do not use this data for real-world aviation or navigation. No guarantee of current accuracy is given.